Time;durP1;ratioP1;P1;durP2;ratioP2;P2;SDS_P1;SDS_P2;PMS_P1;PMS_P2;Temp;Humidity;BMP_temperature;BMP_pressure;BME280_temperature;BME280_humidity;BME280_pressure;Samples;Min_cycle;Max_cycle;Signal;HPM_P1;HPM_P2
2023/05/17 00:05:34;;;;;;;2.72;1.15;;;;;;;;;;9983569;29;20055;-80
2023/05/17 00:36:34;;;;;;;1.25;0.70;;;;;;;;;;10063662;29;20053;-80
2023/05/17 00:41:43;;;;;;;3.08;1.08;;;;;;;;;;10075639;29;20047;-80
2023/05/17 00:46:51;;;;;;;2.45;1.35;;;;;;;;;;10075651;29;20527;-80
2023/05/17 00:57:50;;;;;;;2.88;1.00;;;;;;;;;;10068823;29;20409;-79
2023/05/17 01:02:57;;;;;;;1.92;1.17;;;;;;;;;;10088405;29;20049;-79
2023/05/17 01:08:06;;;;;;;2.97;0.95;;;;;;;;;;10072137;29;20133;-80
2023/05/17 01:13:24;;;;;;;2.25;0.90;;;;;;;;;;10081458;29;20049;-79
2023/05/17 01:18:38;;;;;;;2.10;1.25;;;;;;;;;;10082022;29;20112;-81
2023/05/17 01:23:55;;;;;;;2.47;1.15;;;;;;;;;;10080978;29;20468;-81
2023/05/17 01:29:05;;;;;;;1.85;1.10;;;;;;;;;;10081514;29;20049;-81
2023/05/17 01:34:11;;;;;;;1.75;1.10;;;;;;;;;;10098307;29;20045;-80
2023/05/17 01:39:15;;;;;;;2.38;1.15;;;;;;;;;;10079941;29;20463;-80
2023/05/17 01:44:26;;;;;;;1.58;0.90;;;;;;;;;;10080201;29;20042;-80
2023/05/17 01:49:39;;;;;;;1.48;0.90;;;;;;;;;;10080279;29;20414;-81
2023/05/17 01:54:48;;;;;;;2.60;1.10;;;;;;;;;;10077311;29;20049;-80
2023/05/17 01:59:53;;;;;;;1.83;1.00;;;;;;;;;;10079218;29;20081;-81
2023/05/17 02:05:00;;;;;;;1.70;1.10;;;;;;;;;;10078834;29;20140;-80
2023/05/17 02:10:04;;;;;;;1.58;1.10;;;;;;;;;;10078331;29;20137;-80
2023/05/17 02:15:10;;;;;;;1.77;1.30;;;;;;;;;;10078483;29;20045;-79
2023/05/17 02:20:15;;;;;;;1.30;0.85;;;;;;;;;;10078276;29;20080;-80
2023/05/17 02:25:18;;;;;;;1.77;1.00;;;;;;;;;;10079783;29;20119;-80
2023/05/17 02:30:23;;;;;;;2.65;0.90;;;;;;;;;;10077819;29;20048;-79
2023/05/17 02:35:27;;;;;;;1.23;0.90;;;;;;;;;;10078117;29;20063;-79
2023/05/17 02:40:31;;;;;;;1.33;0.93;;;;;;;;;;10076961;29;20152;-80
2023/05/17 02:45:52;;;;;;;1.63;1.00;;;;;;;;;;10078086;29;20411;-80
2023/05/17 02:51:00;;;;;;;2.08;1.23;;;;;;;;;;10077732;29;20124;-81
2023/05/17 02:56:04;;;;;;;1.20;0.90;;;;;;;;;;10076803;29;20537;-81
2023/05/17 03:01:10;;;;;;;3.97;0.90;;;;;;;;;;10075294;29;20060;-81
2023/05/17 03:06:13;;;;;;;1.88;1.10;;;;;;;;;;10077404;29;20053;-81
2023/05/17 03:11:17;;;;;;;1.75;1.20;;;;;;;;;;10076931;29;20529;-81
2023/05/17 03:16:23;;;;;;;2.03;1.10;;;;;;;;;;10076758;29;20121;-79
2023/05/17 03:21:27;;;;;;;;;;;;;;;;;;10076111;29;20485;-81
2023/05/17 03:26:32;;;;;;;1.83;1.08;;;;;;;;;;10076004;29;19923;-80
2023/05/17 03:31:37;;;;;;;1.02;0.70;;;;;;;;;;10075944;29;20057;-80
2023/05/17 03:36:41;;;;;;;1.25;1.02;;;;;;;;;;10076484;29;20057;-80
2023/05/17 03:41:45;;;;;;;3.20;0.90;;;;;;;;;;10076337;29;20048;-80
2023/05/17 03:46:51;;;;;;;1.58;0.82;;;;;;;;;;10075986;29;20049;-80
2023/05/17 03:51:56;;;;;;;2.92;1.20;;;;;;;;;;10075613;29;20057;-80
2023/05/17 03:57:00;;;;;;;2.03;1.17;;;;;;;;;;10075401;29;20052;-80
2023/05/17 04:02:06;;;;;;;2.25;1.00;;;;;;;;;;10074687;29;20515;-80
2023/05/17 04:07:10;;;;;;;1.70;0.70;;;;;;;;;;10075307;29;20119;-81
2023/05/17 04:12:15;;;;;;;2.38;1.02;;;;;;;;;;10073635;29;20293;-81
2023/05/17 04:17:21;;;;;;;1.80;1.10;;;;;;;;;;10076477;29;20131;-80
2023/05/17 04:22:24;;;;;;;1.75;1.23;;;;;;;;;;10082364;29;20045;-80
2023/05/17 04:27:28;;;;;;;2.22;1.00;;;;;;;;;;10087697;29;20041;-81
2023/05/17 04:32:34;;;;;;;2.17;1.15;;;;;;;;;;10083913;29;20053;-81
2023/05/17 04:37:39;;;;;;;1.60;1.00;;;;;;;;;;10082867;29;20045;-81
2023/05/17 04:42:53;;;;;;;4.75;1.42;;;;;;;;;;10084546;29;20143;-81
2023/05/17 04:48:02;;;;;;;1.60;0.80;;;;;;;;;;10083404;29;20429;-81
2023/05/17 04:53:08;;;;;;;;;;;;;;;;;;10082814;29;20443;-81
2023/05/17 04:58:12;;;;;;;1.80;1.00;;;;;;;;;;10081675;29;19924;-80
2023/05/17 05:03:22;;;;;;;1.98;0.88;;;;;;;;;;10082541;29;20049;-80
2023/05/17 05:08:26;;;;;;;1.58;0.88;;;;;;;;;;10082628;29;20049;-81
2023/05/17 05:13:31;;;;;;;3.38;1.33;;;;;;;;;;10082558;29;20538;-80
2023/05/17 05:18:37;;;;;;;4.20;1.10;;;;;;;;;;10082464;29;20101;-80
2023/05/17 05:23:41;;;;;;;2.83;1.07;;;;;;;;;;10082752;29;20519;-80
2023/05/17 05:28:47;;;;;;;1.90;1.20;;;;;;;;;;10081514;29;20113;-80
2023/05/17 05:33:53;;;;;;;2.88;1.05;;;;;;;;;;10100491;29;20072;-80
2023/05/17 05:38:56;;;;;;;2.70;1.53;;;;;;;;;;10081765;29;20396;-80
2023/05/17 05:44:04;;;;;;;1.80;0.95;;;;;;;;;;10081569;29;20503;-79
2023/05/17 05:49:10;;;;;;;1.55;1.20;;;;;;;;;;10078775;29;20049;-80
2023/05/17 05:54:16;;;;;;;2.65;1.60;;;;;;;;;;10079015;29;20045;-79
2023/05/17 05:59:24;;;;;;;3.30;1.90;;;;;;;;;;10080804;29;20140;-79
2023/05/17 06:04:30;;;;;;;5.47;1.30;;;;;;;;;;10064374;29;20049;-79
2023/05/17 06:09:45;;;;;;;2.42;1.25;;;;;;;;;;10096661;29;20063;-79
2023/05/17 06:20:15;;;;;;;3.50;1.50;;;;;;;;;;10077980;29;20060;-79
2023/05/17 06:25:39;;;;;;;2.55;1.60;;;;;;;;;;10085239;29;20059;-79
2023/05/17 06:30:48;;;;;;;4.40;1.50;;;;;;;;;;10076539;29;20081;-80
2023/05/17 06:36:02;;;;;;;3.70;1.20;;;;;;;;;;10079301;29;20045;-79
2023/05/17 06:41:09;;;;;;;3.22;1.60;;;;;;;;;;10076962;29;20053;-79
2023/05/17 06:46:19;;;;;;;5.28;2.20;;;;;;;;;;10078863;29;21755;-79
2023/05/17 06:51:26;;;;;;;4.78;1.73;;;;;;;;;;10077008;29;20101;-79
2023/05/17 06:56:39;;;;;;;3.42;1.60;;;;;;;;;;10075919;29;20060;-79
2023/05/17 07:01:43;;;;;;;4.07;1.60;;;;;;;;;;10075947;29;20422;-80
2023/05/17 07:06:48;;;;;;;2.88;1.00;;;;;;;;;;10094869;29;20112;-79
2023/05/17 07:11:54;;;;;;;4.53;1.80;;;;;;;;;;10075439;29;20049;-80
2023/05/17 07:16:59;;;;;;;5.43;2.00;;;;;;;;;;10067165;29;20535;-79
2023/05/17 07:22:13;;;;;;;4.32;1.50;;;;;;;;;;10076472;29;20128;-79
2023/05/17 07:27:37;;;;;;;3.28;1.40;;;;;;;;;;10073503;29;20053;-80
2023/05/17 07:32:50;;;;;;;1.42;1.00;;;;;;;;;;10092257;29;20515;-79
2023/05/17 07:38:04;;;;;;;3.72;1.27;;;;;;;;;;10085298;29;20064;-79
2023/05/17 07:43:16;;;;;;;3.83;2.20;;;;;;;;;;10092641;29;20083;-79
2023/05/17 07:48:35;;;;;;;3.22;1.33;;;;;;;;;;10086660;29;20523;-81
2023/05/17 07:53:44;;;;;;;3.90;1.70;;;;;;;;;;10068580;29;20053;-79
2023/05/17 07:58:50;;;;;;;3.10;1.58;;;;;;;;;;10075651;29;20073;-80
2023/05/17 08:03:58;;;;;;;4.32;2.10;;;;;;;;;;10065707;29;20085;-79
2023/05/17 08:09:04;;;;;;;5.72;2.08;;;;;;;;;;10092361;29;20060;-80
2023/05/17 08:14:14;;;;;;;9.73;4.25;;;;;;;;;;10074106;29;20067;-80
2023/05/17 08:20:09;;;;;;;9.00;3.25;;;;;;;;;;10083501;29;20053;-80
2023/05/17 08:31:12;;;;;;;4.20;2.10;;;;;;;;;;10088890;29;20602;-79
2023/05/17 08:36:16;;;;;;;9.50;3.33;;;;;;;;;;10076304;29;20386;-79
2023/05/17 08:41:49;;;;;;;3.25;1.70;;;;;;;;;;10082362;29;20074;-79
2023/05/17 08:46:59;;;;;;;6.30;2.25;;;;;;;;;;10067267;29;20508;-80
2023/05/17 08:52:59;;;;;;;2.92;1.50;;;;;;;;;;10066259;29;20171;-79
2023/05/17 08:58:39;;;;;;;4.35;2.42;;;;;;;;;;9941806;29;20086;-80
2023/05/17 09:04:06;;;;;;;4.85;2.70;;;;;;;;;;10073743;29;20076;-80
2023/05/17 09:21:01;;;;;;;6.72;2.58;;;;;;;;;;10112107;23;20067;-82
2023/05/17 09:26:06;;;;;;;7.68;3.35;;;;;;;;;;10123924;29;20128;-83
2023/05/17 09:31:13;;;;;;;6.00;2.80;;;;;;;;;;10102200;29;20053;-83
2023/05/17 09:36:23;;;;;;;2.03;1.48;;;;;;;;;;10096877;29;20040;-83
2023/05/17 09:41:27;;;;;;;5.72;3.00;;;;;;;;;;10101805;29;20600;-83
2023/05/17 09:46:35;;;;;;;4.88;1.80;;;;;;;;;;10106277;29;20077;-82
2023/05/17 09:51:41;;;;;;;4.13;1.70;;;;;;;;;;10117744;29;20159;-83
2023/05/17 09:56:45;;;;;;;;;;;;;;;;;;10106726;29;20072;-83
2023/05/17 10:01:50;;;;;;;4.82;2.03;;;;;;;;;;10115413;29;20002;-83
2023/05/17 10:06:55;;;;;;;3.03;1.53;;;;;;;;;;10122566;29;20108;-82
2023/05/17 10:11:58;;;;;;;5.10;2.30;;;;;;;;;;10096623;29;20072;-82
2023/05/17 10:17:04;;;;;;;5.10;1.90;;;;;;;;;;10094497;29;20092;-82
2023/05/17 10:22:07;;;;;;;5.13;2.00;;;;;;;;;;10116095;29;20117;-84
2023/05/17 10:27:21;;;;;;;5.55;2.15;;;;;;;;;;10128390;29;20144;-83
2023/05/17 10:32:28;;;;;;;5.13;2.28;;;;;;;;;;10104460;29;20052;-88
2023/05/17 10:37:32;;;;;;;2.97;1.50;;;;;;;;;;10128376;29;20072;-83
2023/05/17 10:42:36;;;;;;;4.70;2.13;;;;;;;;;;10118451;29;20084;-83
2023/05/17 10:47:42;;;;;;;3.83;1.77;;;;;;;;;;10125288;29;20048;-85
2023/05/17 10:52:47;;;;;;;2.72;1.27;;;;;;;;;;10102181;29;20106;-83
2023/05/17 10:58:16;;;;;;;2.33;1.38;;;;;;;;;;10114222;29;20120;-84
2023/05/17 11:03:23;;;;;;;3.20;1.40;;;;;;;;;;10104389;29;20050;-85
2023/05/17 11:08:26;;;;;;;2.45;1.30;;;;;;;;;;10116467;29;20088;-86
2023/05/17 11:13:30;;;;;;;1.73;0.80;;;;;;;;;;10106634;29;20084;-88
2023/05/17 11:18:50;;;;;;;3.63;0.88;;;;;;;;;;10115038;29;20116;-84
2023/05/17 11:24:00;;;;;;;2.78;1.00;;;;;;;;;;10121680;29;20081;-83
2023/05/17 11:29:09;;;;;;;2.25;0.70;;;;;;;;;;10114449;29;20057;-89
2023/05/17 11:34:13;;;;;;;3.30;1.02;;;;;;;;;;10107097;29;20056;-85
2023/05/17 11:39:20;;;;;;;2.42;1.13;;;;;;;;;;10108056;29;20052;-86
2023/05/17 11:44:28;;;;;;;3.35;0.90;;;;;;;;;;10095451;29;20056;-83
2023/05/17 11:49:36;;;;;;;3.50;1.20;;;;;;;;;;10122297;29;20052;-86
2023/05/17 11:54:41;;;;;;;3.38;0.82;;;;;;;;;;10106493;29;20064;-83
2023/05/17 11:59:45;;;;;;;3.67;1.08;;;;;;;;;;10114238;29;20492;-83
2023/05/17 12:04:50;;;;;;;1.67;0.80;;;;;;;;;;10113952;29;20049;-86
2023/05/17 12:09:53;;;;;;;4.90;1.42;;;;;;;;;;10114397;29;20072;-86
2023/05/17 12:14:57;;;;;;;2.53;1.05;;;;;;;;;;10130810;29;20100;-88
2023/05/17 12:20:11;;;;;;;5.18;1.60;;;;;;;;;;10105766;29;20068;-83
2023/05/17 12:25:26;;;;;;;4.28;1.27;;;;;;;;;;10111249;29;20061;-83
2023/05/17 12:30:30;;;;;;;5.03;1.30;;;;;;;;;;10112598;29;20045;-83
2023/05/17 12:35:35;;;;;;;2.28;0.70;;;;;;;;;;10129697;29;20493;-84
2023/05/17 12:40:41;;;;;;;6.38;1.60;;;;;;;;;;10113802;29;20424;-83
2023/05/17 12:45:47;;;;;;;2.00;0.80;;;;;;;;;;10107316;29;20063;-87
2023/05/17 12:50:54;;;;;;;3.47;1.10;;;;;;;;;;10130489;29;20256;-84
2023/05/17 12:55:58;;;;;;;2.05;0.80;;;;;;;;;;10120589;29;20531;-87
2023/05/17 13:01:05;;;;;;;5.47;1.73;;;;;;;;;;10120500;29;20539;-88
2023/05/17 13:06:10;;;;;;;2.35;0.80;;;;;;;;;;10119126;29;20049;-84
2023/05/17 13:11:14;;;;;;;2.97;1.02;;;;;;;;;;10131243;29;20053;-84
2023/05/17 13:16:18;;;;;;;1.77;0.90;;;;;;;;;;10110229;29;20099;-84
2023/05/17 13:21:23;;;;;;;2.88;1.00;;;;;;;;;;10124646;29;20052;-87
2023/05/17 13:26:26;;;;;;;3.03;0.90;;;;;;;;;;10112402;29;20064;-83
2023/05/17 13:31:29;;;;;;;3.40;1.00;;;;;;;;;;10112708;29;20223;-85
2023/05/17 13:36:34;;;;;;;3.67;1.20;;;;;;;;;;10109027;29;20076;-84
2023/05/17 13:41:37;;;;;;;4.85;1.48;;;;;;;;;;10126161;29;20092;-85
2023/05/17 13:46:43;;;;;;;2.65;0.80;;;;;;;;;;10129009;29;20076;-86
2023/05/17 13:51:49;;;;;;;5.65;1.00;;;;;;;;;;10127194;29;20056;-84
2023/05/17 13:56:54;;;;;;;3.42;1.25;;;;;;;;;;10111836;29;20513;-85
2023/05/17 14:01:57;;;;;;;2.83;0.95;;;;;;;;;;10102656;29;20791;-83
2023/05/17 14:07:02;;;;;;;2.30;0.93;;;;;;;;;;10123123;29;20104;-86
2023/05/17 14:12:06;;;;;;;1.83;0.60;;;;;;;;;;10109889;29;20056;-83
2023/05/17 14:17:10;;;;;;;3.40;0.80;;;;;;;;;;10107198;29;20076;-85
2023/05/17 14:22:14;;;;;;;3.45;0.70;;;;;;;;;;10125851;29;20049;-83
2023/05/17 14:27:18;;;;;;;1.95;0.77;;;;;;;;;;10101370;29;20596;-82
2023/05/17 14:32:22;;;;;;;4.10;0.90;;;;;;;;;;10095036;29;20864;-82
2023/05/17 14:37:27;;;;;;;2.83;0.88;;;;;;;;;;10118091;29;20060;-82
2023/05/17 14:42:30;;;;;;;2.22;0.60;;;;;;;;;;10116142;29;20057;-82
2023/05/17 14:47:34;;;;;;;4.45;0.90;;;;;;;;;;10118454;29;20067;-82
2023/05/17 14:52:40;;;;;;;1.98;0.85;;;;;;;;;;10099992;29;20527;-82
2023/05/17 14:57:43;;;;;;;1.42;0.63;;;;;;;;;;10100767;29;20601;-82
2023/05/17 15:02:47;;;;;;;2.78;0.90;;;;;;;;;;10100021;29;20139;-84
2023/05/17 15:07:52;;;;;;;3.10;1.50;;;;;;;;;;10131875;29;20052;-82
2023/05/17 15:12:55;;;;;;;2.47;0.70;;;;;;;;;;10099639;29;20056;-83
2023/05/17 15:17:59;;;;;;;2.92;0.90;;;;;;;;;;10098729;29;20056;-82
2023/05/17 15:23:04;;;;;;;4.53;1.13;;;;;;;;;;10098874;29;20052;-82
2023/05/17 15:28:07;;;;;;;2.25;0.80;;;;;;;;;;10106571;29;20124;-82
2023/05/17 15:33:11;;;;;;;2.85;0.73;;;;;;;;;;10098143;29;20355;-82
2023/05/17 15:38:16;;;;;;;1.90;0.80;;;;;;;;;;10097880;29;20049;-82
2023/05/17 15:43:19;;;;;;;3.95;0.90;;;;;;;;;;10098482;29;20052;-82
2023/05/17 15:48:24;;;;;;;1.38;0.47;;;;;;;;;;10099213;29;20055;-82
2023/05/17 15:53:30;;;;;;;2.03;0.80;;;;;;;;;;10098625;29;20052;-81
2023/05/17 15:58:34;;;;;;;3.28;0.77;;;;;;;;;;10115952;29;20084;-82
2023/05/17 16:03:37;;;;;;;3.03;0.80;;;;;;;;;;10113386;29;20116;-82
2023/05/17 16:08:42;;;;;;;4.05;1.30;;;;;;;;;;10098043;29;20056;-82
2023/05/17 16:13:46;;;;;;;1.60;0.65;;;;;;;;;;10098642;29;20167;-82
2023/05/17 16:18:49;;;;;;;1.20;0.70;;;;;;;;;;10111624;29;20068;-82
2023/05/17 16:23:53;;;;;;;1.35;0.63;;;;;;;;;;10116530;29;20140;-84
2023/05/17 16:28:57;;;;;;;2.22;0.98;;;;;;;;;;10121299;29;20592;-83
2023/05/17 16:34:01;;;;;;;2.97;0.80;;;;;;;;;;10124761;29;20064;-84
2023/05/17 16:39:07;;;;;;;1.92;0.75;;;;;;;;;;10126240;29;20112;-87
2023/05/17 16:44:10;;;;;;;2.65;0.70;;;;;;;;;;10140886;29;20496;-87
2023/05/17 16:49:14;;;;;;;3.13;0.80;;;;;;;;;;10141216;29;20044;-88
2023/05/17 16:54:18;;;;;;;1.45;0.60;;;;;;;;;;10123795;29;20052;-85
2023/05/17 16:59:22;;;;;;;4.00;0.80;;;;;;;;;;10122982;29;20048;-83
2023/05/17 17:04:25;;;;;;;2.83;0.63;;;;;;;;;;10142775;23;20057;-84
2023/05/17 17:09:30;;;;;;;0.75;0.47;;;;;;;;;;10090750;29;20085;-85
2023/05/17 17:14:33;;;;;;;2.60;0.70;;;;;;;;;;10060299;29;20650;-85
2023/05/17 17:19:36;;;;;;;2.45;0.60;;;;;;;;;;10048360;29;20048;-84
2023/05/17 17:24:42;;;;;;;1.98;0.38;;;;;;;;;;10043573;29;20113;-85
2023/05/17 17:29:45;;;;;;;1.85;0.65;;;;;;;;;;10048469;29;20353;-85
2023/05/17 17:34:49;;;;;;;4.80;0.90;;;;;;;;;;10040363;29;20420;-84
2023/05/17 17:39:53;;;;;;;2.03;0.70;;;;;;;;;;10035985;29;20053;-84
2023/05/17 17:44:57;;;;;;;3.85;0.63;;;;;;;;;;10051536;29;20054;-86
2023/05/17 17:50:00;;;;;;;1.08;0.40;;;;;;;;;;10025906;29;20060;-86
2023/05/17 17:55:06;;;;;;;1.05;0.60;;;;;;;;;;10027445;29;20046;-85
2023/05/17 18:00:11;;;;;;;1.73;0.50;;;;;;;;;;10053834;29;20063;-87
2023/05/17 18:05:15;;;;;;;3.15;0.55;;;;;;;;;;10030684;29;20128;-85
2023/05/17 18:10:20;;;;;;;1.63;0.38;;;;;;;;;;10024673;29;20140;-85
2023/05/17 18:15:23;;;;;;;2.28;0.57;;;;;;;;;;10014625;29;20434;-85
2023/05/17 18:20:27;;;;;;;1.85;0.70;;;;;;;;;;10040436;29;20134;-85
2023/05/17 18:25:31;;;;;;;2.33;0.70;;;;;;;;;;10030790;29;20348;-85
2023/05/17 18:30:35;;;;;;;2.97;0.70;;;;;;;;;;10031936;29;20329;-85
2023/05/17 18:35:38;;;;;;;2.47;0.75;;;;;;;;;;10030324;29;20091;-87
2023/05/17 18:40:43;;;;;;;2.65;0.70;;;;;;;;;;10030226;29;20093;-85
2023/05/17 18:45:46;;;;;;;1.88;0.60;;;;;;;;;;10035623;29;20536;-85
2023/05/17 18:50:50;;;;;;;2.42;0.80;;;;;;;;;;10036487;29;20565;-86
2023/05/17 18:55:54;;;;;;;2.53;0.88;;;;;;;;;;10046133;29;20080;-85
2023/05/17 19:01:00;;;;;;;3.15;0.90;;;;;;;;;;10036755;29;20140;-84
2023/05/17 19:06:03;;;;;;;2.97;0.60;;;;;;;;;;10048094;29;20046;-85
2023/05/17 19:11:08;;;;;;;3.38;0.80;;;;;;;;;;10029034;29;20055;-85
2023/05/17 19:16:11;;;;;;;2.53;0.80;;;;;;;;;;10043728;29;20540;-85
2023/05/17 19:21:15;;;;;;;1.02;0.50;;;;;;;;;;10029144;29;20053;-85
2023/05/17 19:26:20;;;;;;;3.05;0.60;;;;;;;;;;10028175;29;20049;-85
2023/05/17 19:31:23;;;;;;;3.47;0.77;;;;;;;;;;10021695;29;20082;-85
2023/05/17 19:36:27;;;;;;;2.03;0.65;;;;;;;;;;10026688;29;20406;-85
2023/05/17 19:41:32;;;;;;;2.78;0.60;;;;;;;;;;10039535;29;20560;-85
2023/05/17 19:46:35;;;;;;;1.33;0.55;;;;;;;;;;10052844;29;20104;-85
2023/05/17 19:51:38;;;;;;;3.63;0.63;;;;;;;;;;10024456;29;20041;-86
2023/05/17 19:56:43;;;;;;;3.50;0.80;;;;;;;;;;10048865;29;20261;-85
2023/05/17 20:01:47;;;;;;;1.30;0.60;;;;;;;;;;10026388;29;20136;-86
2023/05/17 20:06:50;;;;;;;1.65;0.60;;;;;;;;;;10051560;29;20125;-84
2023/05/17 20:11:55;;;;;;;2.75;0.80;;;;;;;;;;10051203;29;20041;-85
2023/05/17 20:16:58;;;;;;;1.77;0.77;;;;;;;;;;10028136;29;20545;-85
2023/05/17 20:22:02;;;;;;;2.97;1.10;;;;;;;;;;10026404;29;20050;-84
2023/05/17 20:27:07;;;;;;;2.72;1.02;;;;;;;;;;10027516;29;20137;-85
2023/05/17 20:32:10;;;;;;;2.38;0.73;;;;;;;;;;10026224;29;20128;-84
2023/05/17 20:37:13;;;;;;;2.28;0.60;;;;;;;;;;10050180;29;20049;-85
2023/05/17 20:42:19;;;;;;;2.55;0.85;;;;;;;;;;10025753;29;20569;-85
2023/05/17 20:47:22;;;;;;;6.60;0.90;;;;;;;;;;10026576;29;20087;-85
2023/05/17 20:52:25;;;;;;;2.70;0.80;;;;;;;;;;10026288;29;20049;-84
2023/05/17 20:57:41;;;;;;;4.00;1.00;;;;;;;;;;10026740;29;20049;-85
2023/05/17 21:02:45;;;;;;;1.70;0.93;;;;;;;;;;10025564;29;20468;-85
2023/05/17 21:07:49;;;;;;;1.88;1.10;;;;;;;;;;10026252;29;20072;-84
2023/05/17 21:12:53;;;;;;;2.33;0.90;;;;;;;;;;10027233;29;20048;-84
2023/05/17 21:17:57;;;;;;;2.13;1.00;;;;;;;;;;10049946;29;20132;-85
2023/05/17 21:23:00;;;;;;;3.58;0.93;;;;;;;;;;10049330;29;20094;-85
2023/05/17 21:28:05;;;;;;;4.13;1.02;;;;;;;;;;10033402;29;20132;-85
2023/05/17 21:33:08;;;;;;;2.50;1.00;;;;;;;;;;10027654;29;20573;-85
2023/05/17 21:38:12;;;;;;;2.38;0.90;;;;;;;;;;10037263;29;20209;-86
2023/05/17 21:43:17;;;;;;;2.20;1.10;;;;;;;;;;10062210;29;20049;-86
2023/05/17 21:48:20;;;;;;;1.95;1.20;;;;;;;;;;10064091;29;20125;-85
2023/05/17 21:53:24;;;;;;;2.53;1.10;;;;;;;;;;10073998;29;20037;-85
2023/05/17 21:58:29;;;;;;;3.55;1.38;;;;;;;;;;10086040;29;20057;-85
2023/05/17 22:03:33;;;;;;;2.90;1.25;;;;;;;;;;10031974;29;20094;-86
2023/05/17 22:08:36;;;;;;;3.00;1.00;;;;;;;;;;10052689;29;20408;-84
2023/05/17 22:13:41;;;;;;;3.38;0.98;;;;;;;;;;10028282;29;20156;-84
2023/05/17 22:18:46;;;;;;;6.10;1.48;;;;;;;;;;10043573;29;20052;-85
2023/05/17 22:23:49;;;;;;;1.38;0.75;;;;;;;;;;10033926;29;20053;-85
2023/05/17 22:28:54;;;;;;;3.30;0.98;;;;;;;;;;10059810;29;20045;-85
2023/05/17 22:33:58;;;;;;;3.10;1.25;;;;;;;;;;10026517;29;20466;-85
2023/05/17 22:39:01;;;;;;;2.08;1.08;;;;;;;;;;10030710;29;20725;-84
2023/05/17 22:44:06;;;;;;;2.13;1.00;;;;;;;;;;10025782;29;20037;-85
2023/05/17 22:49:12;;;;;;;2.33;1.00;;;;;;;;;;10038592;29;20042;-85
2023/05/17 22:54:16;;;;;;;3.90;1.40;;;;;;;;;;10021118;29;20093;-84
2023/05/17 22:59:21;;;;;;;2.67;1.10;;;;;;;;;;10030414;29;20152;-84
2023/05/17 23:04:25;;;;;;;3.72;1.38;;;;;;;;;;10130631;23;20035;-85
2023/05/17 23:09:29;;;;;;;1.85;1.20;;;;;;;;;;10106248;29;20057;-84
2023/05/17 23:14:42;;;;;;;2.15;1.20;;;;;;;;;;10107860;29;20094;-85
2023/05/17 23:19:48;;;;;;;2.20;1.15;;;;;;;;;;10106145;29;20131;-89
2023/05/17 23:24:52;;;;;;;2.00;0.80;;;;;;;;;;10106770;29;20047;-85
2023/05/17 23:29:58;;;;;;;4.47;1.13;;;;;;;;;;10122078;29;20044;-85
2023/05/17 23:35:03;;;;;;;2.45;1.17;;;;;;;;;;10122433;29;20492;-89
2023/05/17 23:40:10;;;;;;;3.03;1.40;;;;;;;;;;10105437;29;20412;-87
2023/05/17 23:45:15;;;;;;;3.08;1.30;;;;;;;;;;10106263;29;20052;-88
2023/05/17 23:50:22;;;;;;;2.10;1.10;;;;;;;;;;10115588;29;20100;-85
2023/05/17 23:55:25;;;;;;;3.67;1.05;;;;;;;;;;10121871;29;20063;-86
